createdAt,value
2022-10-18T00:00:02.921Z,18.90
2022-10-18T00:01:02.890Z,19.02
2022-10-18T00:02:02.936Z,18.98
2022-10-18T00:03:02.871Z,18.87
2022-10-18T00:04:02.867Z,18.94
2022-10-18T00:05:02.926Z,18.94
2022-10-18T00:06:02.843Z,18.94
2022-10-18T00:07:02.837Z,18.99
2022-10-18T00:08:02.840Z,18.97
2022-10-18T00:09:02.839Z,18.98
2022-10-18T00:10:02.813Z,18.76
2022-10-18T00:11:02.840Z,18.72
2022-10-18T00:12:02.801Z,18.59
2022-10-18T00:13:02.808Z,18.68
2022-10-18T00:14:02.871Z,18.61
2022-10-18T00:15:02.788Z,18.59
2022-10-18T00:16:02.800Z,18.67
2022-10-18T00:17:02.780Z,18.59
2022-10-18T00:18:02.768Z,18.58
2022-10-18T00:19:02.752Z,18.62
2022-10-18T00:20:02.778Z,18.49
2022-10-18T00:21:02.763Z,18.58
2022-10-18T00:22:02.740Z,18.65
2022-10-18T00:23:02.753Z,18.82
2022-10-18T00:24:02.735Z,18.97
2022-10-18T00:25:02.723Z,18.84
2022-10-18T00:26:02.732Z,18.98
2022-10-18T00:27:02.728Z,19.01
2022-10-18T00:28:02.696Z,19.10
2022-10-18T00:29:02.779Z,19.23
2022-10-18T00:30:02.686Z,19.21
2022-10-18T00:31:02.692Z,19.32
2022-10-18T00:32:02.674Z,19.38
2022-10-18T00:33:02.674Z,19.29
2022-10-18T00:34:02.674Z,19.17
2022-10-18T00:35:02.650Z,18.87
2022-10-18T00:36:02.654Z,18.65
2022-10-18T00:37:02.630Z,18.50
2022-10-18T00:38:02.637Z,18.29
2022-10-18T00:39:02.630Z,18.27
2022-10-18T00:40:02.627Z,18.19
2022-10-18T00:41:02.612Z,18.24
2022-10-18T00:42:02.635Z,18.22
2022-10-18T00:43:02.587Z,18.46
2022-10-18T00:44:03.590Z,18.43
2022-10-18T00:45:02.604Z,18.44
2022-10-18T00:46:02.583Z,18.31
2022-10-18T00:47:02.582Z,18.28
2022-10-18T00:48:02.580Z,18.29
2022-10-18T00:49:02.567Z,18.36
2022-10-18T00:50:02.559Z,18.47
2022-10-18T00:51:02.550Z,18.49
2022-10-18T00:52:02.549Z,18.64
2022-10-18T00:53:02.539Z,18.64
2022-10-18T00:54:02.534Z,18.65
2022-10-18T00:55:02.539Z,18.73
2022-10-18T00:56:02.509Z,18.82
2022-10-18T00:57:02.525Z,18.83
2022-10-18T00:58:02.551Z,18.72
2022-10-18T00:59:02.486Z,18.82
2022-10-18T01:00:02.494Z,18.94
2022-10-18T01:01:02.478Z,18.83
2022-10-18T01:02:02.518Z,18.79
2022-10-18T01:03:02.492Z,18.77
2022-10-18T01:04:02.480Z,18.79
2022-10-18T01:05:02.463Z,18.87
2022-10-18T01:06:02.450Z,18.91
2022-10-18T01:07:02.432Z,18.87
2022-10-18T01:08:02.448Z,18.76
2022-10-18T01:09:02.427Z,18.57
2022-10-18T01:10:02.435Z,18.46
2022-10-18T01:11:02.421Z,18.46
2022-10-18T01:12:02.421Z,18.29
2022-10-18T01:13:02.410Z,18.47
2022-10-18T01:14:02.413Z,18.55
2022-10-18T01:15:02.394Z,18.65
2022-10-18T01:16:02.382Z,18.65
2022-10-18T01:17:02.371Z,18.77
2022-10-18T01:18:02.363Z,18.76
2022-10-18T01:19:02.420Z,18.87
2022-10-18T01:20:02.359Z,18.84
2022-10-18T01:21:02.333Z,18.87
2022-10-18T01:22:02.360Z,18.86
2022-10-18T01:23:02.332Z,18.83
2022-10-18T01:24:02.326Z,18.92
2022-10-18T01:26:02.437Z,18.99
2022-10-18T01:27:02.317Z,19.06
2022-10-18T01:28:02.327Z,19.20
2022-10-18T01:29:02.371Z,19.20
2022-10-18T01:30:02.273Z,19.21
2022-10-18T01:31:02.274Z,19.24
2022-10-18T01:32:02.298Z,19.35
2022-10-18T01:33:02.270Z,19.38
2022-10-18T01:35:03.275Z,19.53
2022-10-18T01:36:02.317Z,19.46
2022-10-18T01:37:02.249Z,19.57
2022-10-18T01:38:02.238Z,19.55
2022-10-18T01:39:02.234Z,19.36
2022-10-18T01:40:02.223Z,19.53
2022-10-18T01:41:02.225Z,19.63
2022-10-18T01:42:02.330Z,19.70
2022-10-18T01:43:02.250Z,19.68
2022-10-18T01:44:02.200Z,19.72
2022-10-18T01:45:02.211Z,19.75
2022-10-18T01:46:02.193Z,19.42
2022-10-18T01:47:02.162Z,19.38
2022-10-18T01:48:02.165Z,19.40
2022-10-18T01:49:02.182Z,19.39
2022-10-18T01:50:02.145Z,19.31
2022-10-18T01:51:02.193Z,19.28
2022-10-18T01:52:02.253Z,19.28
2022-10-18T01:53:02.141Z,19.18
2022-10-18T01:54:02.162Z,19.31
2022-10-18T01:55:02.114Z,19.29
2022-10-18T01:56:02.105Z,19.21
2022-10-18T01:57:02.118Z,19.32
2022-10-18T01:58:02.127Z,19.14
2022-10-18T01:59:02.102Z,19.06
2022-10-18T02:00:02.111Z,19.11
2022-10-18T02:01:02.168Z,18.90
2022-10-18T02:02:02.075Z,18.70
2022-10-18T02:03:02.089Z,18.82
2022-10-18T02:04:02.053Z,18.83
2022-10-18T02:05:02.058Z,18.90
2022-10-18T02:06:02.053Z,18.94
2022-10-18T02:07:02.036Z,18.92
2022-10-18T02:08:18.852Z,18.97
2022-10-18T02:09:04.022Z,19.06
2022-10-18T02:10:02.111Z,19.13
2022-10-18T02:11:02.025Z,19.18
2022-10-18T02:12:01.999Z,19.23
2022-10-18T02:13:01.990Z,18.92
2022-10-18T02:14:01.989Z,18.82
2022-10-18T02:15:01.981Z,18.77
2022-10-18T02:16:01.990Z,18.59
2022-10-18T02:17:01.967Z,18.55
2022-10-18T02:18:01.947Z,18.47
2022-10-18T02:19:01.964Z,18.31
2022-10-18T02:20:01.945Z,18.47
2022-10-18T02:21:01.933Z,18.76
2022-10-18T02:22:01.945Z,18.73
2022-10-18T02:23:01.931Z,18.90
2022-10-18T02:24:01.921Z,18.86
2022-10-18T02:25:01.913Z,18.99
2022-10-18T02:26:01.908Z,19.15
2022-10-18T02:27:01.910Z,18.87
2022-10-18T02:28:01.882Z,18.94
2022-10-18T02:29:02.913Z,18.62
2022-10-18T02:30:01.911Z,18.37
2022-10-18T02:31:01.890Z,18.64
2022-10-18T02:32:01.873Z,18.82
2022-10-18T02:33:01.887Z,18.94
2022-10-18T02:34:01.881Z,18.80
2022-10-18T02:35:01.831Z,18.74
2022-10-18T02:36:02.842Z,18.70
2022-10-18T02:37:01.870Z,18.72
2022-10-18T02:38:01.874Z,18.76
2022-10-18T02:39:01.822Z,18.76
2022-10-18T02:40:01.804Z,18.91
2022-10-18T02:41:01.809Z,18.83
2022-10-18T02:42:01.795Z,18.90
2022-10-18T02:43:01.825Z,19.02
2022-10-18T02:44:01.795Z,19.23
2022-10-18T02:45:01.820Z,19.13
2022-10-18T02:46:01.769Z,18.97
2022-10-18T02:47:01.767Z,18.84
2022-10-18T02:48:01.806Z,18.90
2022-10-18T02:49:01.750Z,18.84
2022-10-18T02:50:01.806Z,18.80
2022-10-18T02:51:01.739Z,18.72
2022-10-18T02:52:01.742Z,18.87
2022-10-18T02:53:01.718Z,18.77
2022-10-18T02:54:01.743Z,18.79
2022-10-18T02:55:01.758Z,18.86
2022-10-18T02:56:01.701Z,18.98
2022-10-18T02:57:01.691Z,18.92
2022-10-18T02:58:01.695Z,18.99
2022-10-18T02:59:01.705Z,18.97
2022-10-18T03:00:01.694Z,19.06
2022-10-18T03:01:01.714Z,19.18
2022-10-18T03:02:01.682Z,19.20
2022-10-18T03:03:01.674Z,19.18
2022-10-18T03:04:01.664Z,19.28
2022-10-18T03:05:01.682Z,19.38
2022-10-18T03:06:01.640Z,19.38
2022-10-18T03:07:01.638Z,19.39
2022-10-18T03:08:01.638Z,19.43
2022-10-18T03:09:01.630Z,19.57
2022-10-18T03:10:01.633Z,19.24
2022-10-18T03:11:01.610Z,19.18
2022-10-18T03:12:01.613Z,19.25
2022-10-18T03:13:01.595Z,19.29
2022-10-18T03:14:01.590Z,19.47
2022-10-18T03:15:01.605Z,19.53
2022-10-18T03:16:01.606Z,19.43
2022-10-18T03:17:01.584Z,19.46
2022-10-18T03:18:01.586Z,19.38
2022-10-18T03:19:01.571Z,19.55
2022-10-18T03:20:01.559Z,19.35
2022-10-18T03:21:01.561Z,18.86
2022-10-18T03:22:01.581Z,18.62
2022-10-18T03:23:01.546Z,18.80
2022-10-18T03:24:02.313Z,18.86
2022-10-18T03:25:01.539Z,18.95
2022-10-18T03:26:01.521Z,18.87
2022-10-18T03:27:01.534Z,19.05
2022-10-18T03:28:01.510Z,19.18
2022-10-18T03:29:01.575Z,18.99
2022-10-18T03:30:01.500Z,18.79
2022-10-18T03:31:01.491Z,18.74
2022-10-18T03:32:01.512Z,18.92
2022-10-18T03:33:01.467Z,18.97
2022-10-18T03:34:01.466Z,18.97
2022-10-18T03:35:01.482Z,18.87
2022-10-18T03:36:01.459Z,18.84
2022-10-18T03:37:04.666Z,18.87
2022-10-18T03:38:01.451Z,18.79
2022-10-18T03:39:01.430Z,18.82
2022-10-18T03:40:01.435Z,18.97
2022-10-18T03:41:01.417Z,18.95
2022-10-18T03:42:01.432Z,18.99
2022-10-18T03:43:01.433Z,19.13
2022-10-18T03:44:01.407Z,19.24
2022-10-18T03:45:01.424Z,19.23
2022-10-18T03:46:01.387Z,19.23
2022-10-18T03:47:02.298Z,19.02
2022-10-18T03:48:01.371Z,18.92
2022-10-18T03:49:01.383Z,18.67
2022-10-18T03:50:01.363Z,18.58
2022-10-18T03:51:01.362Z,18.55
2022-10-18T03:52:01.361Z,18.40
2022-10-18T03:53:01.343Z,18.47
2022-10-18T03:54:01.367Z,18.54
2022-10-18T03:55:01.366Z,18.59
2022-10-18T03:56:01.335Z,18.43
2022-10-18T03:57:01.314Z,18.37
2022-10-18T03:58:01.314Z,18.50
2022-10-18T03:59:01.329Z,18.61
2022-10-18T04:00:01.306Z,18.58
2022-10-18T04:01:01.294Z,18.70
2022-10-18T04:02:01.330Z,18.73
2022-10-18T04:03:01.284Z,18.80
2022-10-18T04:04:01.270Z,18.68
2022-10-18T04:05:01.309Z,18.67
2022-10-18T04:06:01.270Z,18.74
2022-10-18T04:07:01.277Z,18.59
2022-10-18T04:08:01.261Z,18.65
2022-10-18T04:09:03.180Z,18.58
2022-10-18T04:10:01.242Z,18.76
2022-10-18T04:11:01.256Z,18.67
2022-10-18T04:12:01.214Z,18.74
2022-10-18T04:13:01.250Z,18.80
2022-10-18T04:14:01.210Z,18.91
2022-10-18T04:15:01.262Z,18.99
2022-10-18T04:16:01.198Z,18.67
2022-10-18T04:17:01.182Z,18.65
2022-10-18T04:18:01.202Z,18.55
2022-10-18T04:19:01.167Z,18.54
2022-10-18T04:20:01.173Z,18.64
2022-10-18T04:21:01.182Z,18.57
2022-10-18T04:22:01.207Z,18.44
2022-10-18T04:23:01.167Z,18.55
2022-10-18T04:24:01.165Z,18.59
2022-10-18T04:25:01.134Z,18.44
2022-10-18T04:26:01.130Z,18.36
2022-10-18T04:27:01.122Z,18.37
2022-10-18T04:28:14.254Z,18.39
2022-10-18T04:29:01.151Z,18.47
2022-10-18T04:30:01.098Z,18.52
2022-10-18T04:31:02.305Z,18.55
2022-10-18T04:32:01.805Z,18.58
2022-10-18T04:33:01.099Z,18.55
2022-10-18T04:34:01.090Z,18.59
2022-10-18T04:35:01.073Z,18.62
2022-10-18T04:36:01.059Z,18.62
2022-10-18T04:37:01.072Z,18.65
2022-10-18T04:38:02.825Z,18.70
2022-10-18T04:39:01.059Z,18.74
2022-10-18T04:40:01.111Z,18.82
2022-10-18T04:41:01.025Z,18.87
2022-10-18T04:42:01.042Z,18.95
2022-10-18T04:43:01.022Z,18.92
2022-10-18T04:44:01.018Z,18.90
2022-10-18T04:45:01.404Z,18.84
2022-10-18T04:46:00.983Z,18.86
2022-10-18T04:47:00.982Z,18.73
2022-10-18T04:48:00.988Z,18.82
2022-10-18T04:49:01.000Z,18.95
2022-10-18T04:50:00.955Z,18.91
2022-10-18T04:51:01.965Z,19.06
2022-10-18T04:52:00.968Z,18.94
2022-10-18T04:53:00.959Z,18.87
2022-10-18T04:54:00.938Z,18.98
2022-10-18T04:55:01.097Z,19.08
2022-10-18T04:56:01.309Z,19.06
2022-10-18T04:57:00.933Z,19.02
2022-10-18T04:58:00.917Z,18.97
2022-10-18T04:59:00.920Z,18.95
2022-10-18T05:00:00.952Z,18.79
2022-10-18T05:01:00.955Z,18.82
2022-10-18T05:02:00.987Z,18.83
2022-10-18T05:03:03.500Z,18.80
2022-10-18T05:04:01.026Z,18.77
2022-10-18T05:05:01.748Z,18.82
2022-10-18T05:06:02.831Z,18.82
2022-10-18T05:07:02.095Z,18.70
2022-10-18T05:08:00.841Z,18.72
2022-10-18T05:09:01.914Z,18.62
2022-10-18T05:10:00.875Z,18.46
2022-10-18T05:11:00.884Z,18.17
2022-10-18T05:12:01.815Z,18.09
2022-10-18T05:13:01.088Z,17.95
2022-10-18T05:14:00.808Z,17.97
2022-10-18T05:15:00.863Z,18.04
2022-10-18T05:16:00.901Z,18.13
2022-10-18T05:17:00.779Z,18.33
2022-10-18T05:18:00.792Z,18.50
2022-10-18T05:19:00.779Z,18.42
2022-10-18T05:20:00.946Z,18.31
2022-10-18T05:21:00.766Z,18.39
2022-10-18T05:22:00.986Z,18.42
2022-10-18T05:23:00.899Z,18.55
2022-10-18T05:24:00.746Z,18.54
2022-10-18T05:25:00.805Z,18.59
2022-10-18T05:26:00.739Z,18.57
2022-10-18T05:27:00.722Z,18.72
2022-10-18T05:28:06.272Z,18.68
2022-10-18T05:29:02.863Z,18.80
2022-10-18T05:30:04.715Z,18.86
2022-10-18T05:31:00.712Z,18.83
2022-10-18T05:32:00.892Z,18.86
2022-10-18T05:33:00.681Z,18.84
2022-10-18T05:34:00.684Z,18.72
2022-10-18T05:35:00.702Z,18.79
2022-10-18T05:36:00.661Z,18.76
2022-10-18T05:37:00.656Z,18.84
2022-10-18T05:38:00.769Z,18.79
2022-10-18T05:39:04.022Z,18.72
2022-10-18T05:40:00.648Z,18.80
2022-10-18T05:41:01.299Z,18.84
2022-10-18T05:42:00.635Z,18.64
2022-10-18T05:43:00.610Z,18.62
2022-10-18T05:44:00.687Z,18.65
2022-10-18T05:45:00.613Z,18.64
2022-10-18T05:46:00.622Z,18.79
2022-10-18T05:47:00.618Z,18.68
2022-10-18T05:48:00.625Z,18.79
2022-10-18T05:49:00.584Z,18.72
2022-10-18T05:50:00.632Z,18.64
2022-10-18T05:51:00.578Z,18.67
2022-10-18T05:52:00.611Z,18.77
2022-10-18T05:53:11.888Z,18.65
2022-10-18T05:54:02.534Z,18.50
2022-10-18T05:55:01.429Z,18.37
2022-10-18T05:56:00.580Z,18.24
2022-10-18T05:57:00.528Z,18.36
2022-10-18T05:58:00.515Z,18.34
2022-10-18T05:59:00.548Z,18.42
2022-10-18T06:00:00.499Z,18.44
2022-10-18T06:01:00.491Z,18.49
2022-10-18T06:02:00.539Z,18.52
2022-10-18T06:03:00.742Z,18.67
2022-10-18T06:04:00.490Z,18.65
2022-10-18T06:05:00.786Z,18.77
2022-10-18T06:06:00.466Z,18.61
2022-10-18T06:07:00.451Z,18.67
2022-10-18T06:08:00.462Z,18.58
2022-10-18T06:09:00.455Z,18.61
2022-10-18T06:10:00.434Z,18.62
2022-10-18T06:11:00.450Z,18.58
2022-10-18T06:12:00.420Z,18.67
2022-10-18T06:13:00.415Z,18.58
2022-10-18T06:14:00.444Z,18.46
2022-10-18T06:15:00.424Z,18.42
2022-10-18T06:16:00.405Z,18.43
2022-10-18T06:17:00.391Z,18.25
2022-10-18T06:18:00.399Z,18.22
2022-10-18T06:19:00.366Z,18.21
2022-10-18T06:20:02.041Z,18.37
2022-10-18T06:21:00.411Z,18.36
2022-10-18T06:22:00.374Z,18.22
2022-10-18T06:23:00.372Z,18.31
2022-10-18T06:24:00.334Z,18.36
2022-10-18T06:25:00.387Z,18.36
2022-10-18T06:26:00.329Z,18.36
2022-10-18T06:27:00.381Z,18.36
2022-10-18T06:28:00.390Z,18.39
2022-10-18T06:29:00.384Z,18.33
2022-10-18T06:30:00.350Z,18.27
2022-10-18T06:31:00.299Z,18.19
2022-10-18T06:32:01.289Z,18.31
2022-10-18T06:33:00.272Z,18.25
2022-10-18T06:34:00.272Z,18.43
2022-10-18T06:35:00.265Z,18.50
2022-10-18T06:36:00.278Z,18.58
2022-10-18T06:37:00.292Z,18.59
2022-10-18T06:38:00.346Z,18.62
2022-10-18T06:39:00.862Z,18.68
2022-10-18T06:40:00.267Z,18.61
2022-10-18T06:41:00.237Z,18.74
2022-10-18T06:42:00.213Z,18.86
2022-10-18T06:43:10.650Z,18.61
2022-10-18T06:44:01.204Z,18.54
2022-10-18T06:45:00.279Z,18.36
2022-10-18T06:46:00.183Z,18.28
2022-10-18T06:47:00.241Z,18.06
2022-10-18T06:48:00.214Z,17.97
2022-10-18T06:49:00.169Z,17.94
2022-10-18T06:50:00.861Z,18.00
2022-10-18T06:51:00.165Z,18.28
2022-10-18T06:52:00.141Z,18.22
2022-10-18T06:53:00.156Z,18.29
2022-10-18T06:54:16.920Z,18.31
2022-10-18T06:55:04.215Z,18.34
2022-10-18T06:56:01.137Z,18.52
2022-10-18T06:57:00.130Z,18.58
2022-10-18T06:58:00.110Z,18.79
2022-10-18T06:59:00.218Z,18.83
2022-10-18T07:00:00.096Z,18.90
2022-10-18T07:01:00.084Z,18.98
2022-10-18T07:02:00.154Z,19.02
2022-10-18T07:03:00.058Z,19.18
2022-10-18T07:04:00.093Z,19.28
2022-10-18T07:05:00.053Z,19.50
2022-10-18T07:06:00.073Z,19.23
2022-10-18T07:07:00.064Z,19.31
2022-10-18T07:08:00.033Z,19.32
2022-10-18T07:09:00.082Z,19.31
2022-10-18T07:10:00.034Z,19.50
2022-10-18T07:11:00.027Z,19.53
2022-10-18T07:12:00.842Z,19.38
2022-10-18T07:13:20.046Z,19.18
2022-10-18T07:14:02.019Z,19.33
2022-10-18T07:15:00.079Z,19.43
2022-10-18T07:16:00.014Z,19.53
2022-10-18T07:16:59.999Z,19.24
2022-10-18T07:17:59.988Z,19.33
2022-10-18T07:18:59.989Z,19.25
2022-10-18T07:19:59.988Z,18.97
2022-10-18T07:20:59.945Z,19.15
2022-10-18T07:21:59.928Z,19.23
2022-10-18T07:22:59.969Z,19.18
2022-10-18T07:23:59.943Z,19.14
2022-10-18T07:25:00.031Z,19.20
2022-10-18T07:25:59.911Z,19.33
2022-10-18T07:26:59.904Z,19.29
2022-10-18T07:27:59.971Z,19.23
2022-10-18T07:28:59.940Z,19.33
2022-10-18T07:29:59.900Z,19.33
2022-10-18T07:31:03.657Z,19.42
2022-10-18T07:32:01.871Z,19.53
2022-10-18T07:32:59.877Z,19.46
2022-10-18T07:33:59.875Z,19.50
2022-10-18T07:35:01.001Z,19.48
2022-10-18T07:35:59.835Z,19.39
2022-10-18T07:36:59.875Z,19.39
2022-10-18T07:37:59.815Z,19.28
2022-10-18T07:38:59.877Z,19.06
2022-10-18T07:39:59.842Z,19.06
2022-10-18T07:40:59.812Z,19.17
2022-10-18T07:41:59.849Z,19.28
2022-10-18T07:43:04.054Z,19.39
2022-10-18T07:44:00.800Z,19.23
2022-10-18T07:44:59.797Z,19.29
2022-10-18T07:45:59.797Z,19.38
2022-10-18T07:46:59.775Z,19.38
2022-10-18T07:47:59.837Z,19.47
2022-10-18T07:48:59.758Z,19.51
2022-10-18T07:49:59.820Z,19.51
2022-10-18T07:50:59.774Z,19.63
2022-10-18T07:51:59.758Z,19.66
2022-10-18T07:52:59.793Z,19.57
2022-10-18T07:53:59.732Z,19.38
2022-10-18T07:54:59.715Z,19.36
2022-10-18T07:56:00.234Z,19.42
2022-10-18T07:56:59.703Z,19.42
2022-10-18T07:57:59.779Z,19.58
2022-10-18T07:58:59.695Z,19.69
2022-10-18T07:59:59.723Z,19.61
2022-10-18T08:00:59.708Z,19.69
2022-10-18T08:01:59.748Z,19.76
2022-10-18T08:02:59.734Z,19.80
2022-10-18T08:04:03.385Z,19.90
2022-10-18T08:05:01.678Z,19.88
2022-10-18T08:05:59.693Z,19.80
2022-10-18T08:06:59.646Z,19.86
2022-10-18T08:08:01.950Z,19.93
2022-10-18T08:08:59.642Z,19.97
2022-10-18T08:09:59.638Z,19.87
2022-10-18T08:10:59.624Z,19.94
2022-10-18T08:11:59.685Z,20.06
2022-10-18T08:12:59.693Z,19.76
2022-10-18T08:13:59.594Z,19.76
2022-10-18T08:14:59.609Z,19.90
2022-10-18T08:15:59.597Z,19.94
2022-10-18T08:16:59.597Z,20.08
2022-10-18T08:17:59.640Z,19.91
2022-10-18T08:18:59.700Z,19.86
2022-10-18T08:20:11.877Z,19.86
2022-10-18T08:21:00.565Z,19.80
2022-10-18T08:21:59.554Z,19.90
2022-10-18T08:23:00.586Z,19.79
2022-10-18T08:24:00.566Z,19.94
2022-10-18T08:24:59.537Z,20.02
2022-10-18T08:25:59.515Z,19.98
2022-10-18T08:26:59.574Z,20.02
2022-10-18T08:27:59.522Z,20.02
2022-10-18T08:29:10.623Z,20.03
2022-10-18T08:30:01.567Z,20.05
2022-10-18T08:30:59.518Z,20.06
2022-10-18T08:31:59.730Z,19.95
2022-10-18T08:32:59.624Z,19.80
2022-10-18T08:33:59.575Z,19.68
2022-10-18T08:34:59.515Z,19.76
2022-10-18T08:35:59.472Z,19.72
2022-10-18T08:36:59.469Z,19.93
2022-10-18T08:37:59.475Z,20.05
2022-10-18T08:38:59.477Z,20.06
2022-10-18T08:39:59.447Z,20.03
2022-10-18T08:40:59.434Z,19.98
2022-10-18T08:41:59.896Z,20.08
2022-10-18T08:42:59.430Z,20.15
2022-10-18T08:44:01.099Z,19.91
2022-10-18T08:45:05.021Z,19.94
2022-10-18T08:46:00.453Z,19.83
2022-10-18T08:46:59.427Z,19.84
2022-10-18T08:47:59.425Z,19.86
2022-10-18T08:48:59.383Z,19.90
2022-10-18T08:49:59.446Z,20.02
2022-10-18T08:50:59.456Z,19.94
2022-10-18T08:51:59.371Z,20.08
2022-10-18T08:52:59.423Z,20.05
2022-10-18T08:53:59.372Z,20.06
2022-10-18T08:54:59.337Z,19.98
2022-10-18T08:55:59.447Z,19.94
2022-10-18T08:56:59.328Z,20.00
2022-10-18T08:57:59.320Z,20.05
2022-10-18T08:58:59.358Z,20.09
2022-10-18T08:59:59.368Z,20.06
2022-10-18T09:00:59.315Z,20.03
2022-10-18T09:01:59.295Z,19.95
2022-10-18T09:02:59.348Z,20.00
2022-10-18T09:03:59.270Z,20.00
2022-10-18T09:05:00.277Z,19.86
2022-10-18T09:05:59.290Z,19.73
2022-10-18T09:06:59.266Z,19.90
2022-10-18T09:07:59.276Z,19.98
2022-10-18T09:08:59.487Z,20.03
2022-10-18T09:09:59.243Z,20.02
2022-10-18T09:10:59.333Z,20.09
2022-10-18T09:12:01.903Z,20.20
2022-10-18T09:13:00.248Z,19.95
2022-10-18T09:13:59.215Z,20.03
2022-10-18T09:14:59.286Z,20.16
2022-10-18T09:15:59.198Z,20.15
2022-10-18T09:17:00.199Z,20.12
2022-10-18T09:17:59.358Z,19.94
2022-10-18T09:18:59.195Z,20.06
2022-10-18T09:20:59.372Z,19.88
2022-10-18T09:21:59.157Z,19.95
2022-10-18T09:22:59.177Z,20.16
2022-10-18T09:23:59.375Z,20.20
2022-10-18T09:24:59.141Z,20.28
2022-10-18T09:25:59.132Z,20.27
2022-10-18T09:26:59.142Z,20.41
2022-10-18T09:27:59.116Z,20.31
2022-10-18T09:28:59.262Z,20.35
2022-10-18T09:29:59.169Z,20.46
2022-10-18T09:30:59.788Z,20.39
2022-10-18T09:31:59.088Z,20.62
2022-10-18T09:32:59.256Z,20.62
2022-10-18T09:33:59.080Z,20.72
2022-10-18T09:34:59.083Z,20.61
2022-10-18T09:35:59.133Z,20.53
2022-10-18T09:36:59.140Z,20.54
2022-10-18T09:37:59.058Z,20.76
2022-10-18T09:39:00.438Z,20.87
2022-10-18T09:39:59.168Z,20.90
2022-10-18T09:40:59.047Z,20.98
2022-10-18T09:41:59.027Z,21.13
2022-10-18T09:42:59.082Z,20.99
2022-10-18T09:43:59.018Z,21.20
2022-10-18T09:44:59.018Z,21.01
2022-10-18T09:45:59.037Z,20.98
2022-10-18T09:46:58.998Z,20.87
2022-10-18T09:47:59.062Z,21.06
2022-10-18T09:48:59.005Z,21.26
2022-10-18T09:49:59.034Z,21.53
2022-10-18T09:50:58.994Z,21.81
2022-10-18T09:51:59.030Z,21.81
2022-10-18T09:52:58.963Z,21.74
2022-10-18T09:53:59.006Z,21.60
2022-10-18T09:54:58.995Z,21.64
2022-10-18T09:55:58.978Z,21.69
2022-10-18T09:56:59.133Z,21.61
2022-10-18T09:57:59.826Z,21.60
2022-10-18T09:58:59.163Z,21.60
2022-10-18T09:59:58.914Z,21.53
2022-10-18T10:00:58.910Z,21.60
2022-10-18T10:01:58.977Z,21.59
2022-10-18T10:02:58.911Z,21.61
2022-10-18T10:03:59.907Z,21.19
2022-10-18T10:04:58.951Z,20.89
2022-10-18T10:05:58.999Z,21.01
2022-10-18T10:06:58.883Z,21.23
2022-10-18T10:07:58.903Z,21.36
2022-10-18T10:08:58.870Z,21.32
2022-10-18T10:09:58.871Z,21.30
2022-10-18T10:10:58.850Z,21.46
2022-10-18T10:11:58.859Z,21.24
2022-10-18T10:12:58.863Z,21.13
2022-10-18T10:13:58.989Z,21.11
2022-10-18T10:14:58.851Z,21.05
2022-10-18T10:15:58.895Z,20.99
2022-10-18T10:16:59.761Z,20.96
2022-10-18T10:17:59.835Z,20.93
2022-10-18T10:18:58.830Z,20.89
2022-10-18T10:19:58.834Z,20.96
2022-10-18T10:20:58.803Z,21.16
2022-10-18T10:21:58.802Z,21.46
2022-10-18T10:22:58.799Z,21.60
2022-10-18T10:23:58.815Z,21.67
2022-10-18T10:24:58.799Z,21.63
2022-10-18T10:25:58.859Z,21.66
2022-10-18T10:26:59.883Z,21.74
2022-10-18T10:27:58.858Z,21.92
2022-10-18T10:28:58.792Z,22.06
2022-10-18T10:30:01.526Z,21.97
2022-10-18T10:31:00.875Z,22.02
2022-10-18T10:31:58.813Z,22.20
2022-10-18T10:32:58.775Z,22.28
2022-10-18T10:33:59.434Z,22.02
2022-10-18T10:34:58.773Z,21.83
2022-10-18T10:35:58.734Z,21.67
2022-10-18T10:37:31.533Z,21.78
2022-10-18T10:37:58.710Z,21.95
2022-10-18T10:38:58.706Z,22.31
2022-10-18T10:40:17.238Z,22.72
2022-10-18T10:41:00.687Z,22.65
2022-10-18T10:41:58.698Z,22.27
2022-10-18T10:43:08.855Z,21.60
2022-10-18T10:44:00.682Z,21.69
2022-10-18T10:44:58.663Z,21.66
2022-10-18T10:45:58.670Z,21.91
2022-10-18T10:46:58.646Z,22.13
2022-10-18T10:47:58.656Z,22.04
2022-10-18T10:49:21.055Z,21.94
2022-10-18T10:50:00.643Z,21.83
2022-10-18T10:50:58.653Z,21.79
2022-10-18T10:52:08.573Z,21.64
2022-10-18T10:52:59.647Z,21.97
2022-10-18T10:53:58.610Z,22.31
2022-10-18T10:55:06.090Z,22.86
2022-10-18T10:56:00.634Z,23.17
2022-10-18T10:56:58.570Z,23.45
2022-10-18T10:57:58.586Z,23.31
2022-10-18T10:58:58.650Z,23.04
2022-10-18T10:59:58.577Z,22.75
2022-10-18T11:00:58.670Z,22.96
2022-10-18T11:01:58.575Z,23.09
2022-10-18T11:03:06.061Z,23.45
2022-10-18T11:04:00.562Z,25.44
2022-10-18T11:04:58.617Z,26.39
2022-10-18T11:05:58.520Z,26.24
2022-10-18T11:06:58.509Z,25.86
2022-10-18T11:07:58.492Z,25.47
2022-10-18T11:08:58.500Z,26.32
2022-10-18T11:09:58.521Z,27.21
2022-10-18T11:10:58.530Z,27.84
2022-10-18T11:11:58.472Z,29.06
2022-10-18T11:12:58.489Z,29.99
2022-10-18T11:14:13.601Z,30.49
2022-10-18T11:15:00.478Z,30.98
2022-10-18T11:15:58.471Z,29.84
2022-10-18T11:16:58.501Z,29.52
2022-10-18T11:17:58.449Z,27.64
2022-10-18T11:18:58.436Z,26.67
2022-10-18T11:19:58.488Z,25.67
2022-10-18T11:20:58.431Z,24.67
2022-10-18T11:21:58.415Z,24.53
2022-10-18T11:22:58.405Z,25.20
2022-10-18T11:23:58.472Z,26.15
2022-10-18T11:24:58.396Z,25.72
2022-10-18T11:25:58.387Z,25.61
2022-10-18T11:26:58.383Z,25.09
2022-10-18T11:27:58.367Z,24.50
2022-10-18T11:28:58.407Z,24.00
2022-10-18T11:29:58.367Z,23.79
2022-10-18T11:30:58.395Z,23.40
2022-10-18T11:31:58.352Z,23.40
2022-10-18T11:32:58.348Z,23.22
2022-10-18T11:34:08.611Z,23.15
2022-10-18T11:35:00.371Z,23.08
2022-10-18T11:36:03.566Z,22.75
2022-10-18T11:37:25.962Z,22.69
2022-10-18T11:38:00.887Z,22.17
2022-10-18T11:38:58.347Z,22.29
2022-10-18T11:39:58.309Z,22.44
2022-10-18T11:40:58.304Z,22.47
2022-10-18T11:41:58.295Z,22.62
2022-10-18T11:42:58.284Z,22.83
2022-10-18T11:44:02.529Z,23.39
2022-10-18T11:44:59.340Z,25.28
2022-10-18T11:45:58.316Z,27.05
2022-10-18T11:46:59.244Z,28.28
2022-10-18T11:47:58.287Z,28.28
2022-10-18T11:48:58.236Z,28.41
2022-10-18T11:49:58.219Z,28.97
2022-10-18T11:50:59.244Z,29.25
2022-10-18T11:52:07.875Z,29.84
2022-10-18T11:53:00.220Z,29.49
2022-10-18T11:53:58.223Z,29.62
2022-10-18T11:54:58.187Z,29.74
2022-10-18T11:55:58.240Z,28.36
2022-10-18T11:56:58.187Z,29.23
2022-10-18T11:57:58.221Z,29.87
2022-10-18T11:58:58.271Z,28.88
2022-10-18T11:59:58.187Z,27.84
2022-10-18T12:00:58.219Z,27.94
2022-10-18T12:01:58.171Z,26.72
2022-10-18T12:02:58.206Z,25.69
2022-10-18T12:03:58.163Z,24.24
2022-10-18T12:06:00.178Z,24.60
2022-10-18T12:06:58.161Z,25.52
2022-10-18T12:07:58.154Z,26.62
2022-10-18T12:08:58.135Z,27.59
2022-10-18T12:09:58.133Z,27.92
2022-10-18T12:11:06.250Z,28.54
2022-10-18T12:12:00.162Z,29.37
2022-10-18T12:12:58.123Z,28.96
2022-10-18T12:13:58.115Z,28.04
2022-10-18T12:14:58.118Z,27.23
2022-10-18T12:15:58.107Z,26.11
2022-10-18T12:17:20.313Z,25.49
2022-10-18T12:18:00.091Z,24.94
2022-10-18T12:18:58.111Z,24.75
2022-10-18T12:19:58.103Z,24.56
2022-10-18T12:20:58.079Z,24.64
2022-10-18T12:21:58.181Z,24.26
2022-10-18T12:22:58.099Z,24.23
2022-10-18T12:23:58.143Z,23.57
2022-10-18T12:24:58.052Z,23.01
2022-10-18T12:25:58.055Z,22.59
2022-10-18T12:26:58.083Z,22.31
2022-10-18T12:27:58.101Z,22.27
2022-10-18T12:28:58.109Z,22.17
2022-10-18T12:29:58.059Z,22.38
2022-10-18T12:30:58.064Z,22.89
2022-10-18T12:31:58.019Z,22.99
2022-10-18T12:33:09.948Z,23.11
2022-10-18T12:34:00.779Z,23.09
2022-10-18T12:34:58.026Z,23.42
2022-10-18T12:35:57.999Z,23.70
2022-10-18T12:36:58.051Z,23.79
2022-10-18T12:37:57.991Z,23.87
2022-10-18T12:38:58.006Z,23.92
2022-10-18T12:40:09.848Z,23.75
2022-10-18T12:40:59.987Z,23.70
2022-10-18T12:41:57.939Z,23.64
2022-10-18T12:42:57.957Z,23.27
2022-10-18T12:43:57.959Z,23.17
2022-10-18T12:44:57.954Z,23.17
2022-10-18T12:45:57.947Z,22.99
2022-10-18T12:46:57.929Z,23.17
2022-10-18T12:47:57.947Z,23.12
2022-10-18T12:48:57.968Z,23.12
2022-10-18T12:49:57.903Z,22.87
2022-10-18T12:50:57.920Z,22.20
2022-10-18T12:51:57.938Z,21.99
2022-10-18T12:52:57.914Z,21.94
2022-10-18T12:53:57.903Z,21.95
2022-10-18T12:54:57.898Z,21.61
2022-10-18T12:55:57.876Z,21.53